createdAt,value
2022-08-25T00:02:56.637Z,21.99
2022-08-25T00:06:00.480Z,21.96
2022-08-25T00:09:02.612Z,21.93
2022-08-25T00:12:05.717Z,21.90
2022-08-25T00:15:09.889Z,21.90
2022-08-25T00:18:19.880Z,21.82
2022-08-25T00:21:22.337Z,21.79
2022-08-25T00:24:25.134Z,21.78
2022-08-25T00:27:27.655Z,21.75
2022-08-25T00:30:30.146Z,21.73
2022-08-25T00:33:32.580Z,21.69
2022-08-25T00:36:34.998Z,21.65
2022-08-25T00:39:38.765Z,21.65
2022-08-25T00:42:41.464Z,21.61
2022-08-25T00:45:43.376Z,21.61
2022-08-25T00:48:51.004Z,21.59
2022-08-25T00:52:02.769Z,21.56
2022-08-25T00:55:23.752Z,21.53
2022-08-25T00:58:31.157Z,21.48
2022-08-25T01:01:33.196Z,21.43
2022-08-25T01:04:35.319Z,21.39
2022-08-25T01:07:38.229Z,21.33
2022-08-25T01:10:44.311Z,21.30
2022-08-25T01:13:54.358Z,21.25
2022-08-25T01:16:58.246Z,21.24
2022-08-25T01:20:00.139Z,21.20
2022-08-25T01:23:02.226Z,21.18
2022-08-25T01:26:15.289Z,21.14
2022-08-25T01:29:25.541Z,21.11
2022-08-25T01:32:27.574Z,21.06
2022-08-25T01:35:29.690Z,21.05
2022-08-25T01:38:31.595Z,21.00
2022-08-25T01:41:43.125Z,20.98
2022-08-25T01:44:47.796Z,20.99
2022-08-25T01:47:52.873Z,20.97
2022-08-25T01:50:54.812Z,20.97
2022-08-25T01:53:56.824Z,20.97
2022-08-25T01:56:59.476Z,20.95
2022-08-25T02:00:01.655Z,20.95
2022-08-25T02:03:18.776Z,20.94
2022-08-25T02:06:29.765Z,20.95
2022-08-25T02:09:33.228Z,20.93
2022-08-25T02:12:35.379Z,20.91
2022-08-25T02:15:45.259Z,20.89
2022-08-25T02:18:48.167Z,20.87
2022-08-25T02:21:51.237Z,20.90
2022-08-25T02:24:53.173Z,20.87
2022-08-25T02:27:55.073Z,20.85
2022-08-25T02:31:01.397Z,20.80
2022-08-25T02:34:04.246Z,20.78
2022-08-25T02:37:06.131Z,20.65
2022-08-25T02:40:09.231Z,20.71
2022-08-25T02:43:11.268Z,20.72
2022-08-25T02:46:13.574Z,20.70
2022-08-25T02:49:16.113Z,20.67
2022-08-25T02:52:17.949Z,20.60
2022-08-25T02:55:20.346Z,20.59
2022-08-25T02:58:22.244Z,20.53
2022-08-25T03:01:29.072Z,20.54
2022-08-25T03:04:32.080Z,20.54
2022-08-25T03:07:35.634Z,20.55
2022-08-25T03:10:37.899Z,20.54
2022-08-25T03:13:40.662Z,20.53
2022-08-25T03:16:43.026Z,20.55
2022-08-25T03:19:48.401Z,20.54
2022-08-25T03:22:50.682Z,20.54
2022-08-25T03:26:13.707Z,20.55
2022-08-25T03:29:16.224Z,20.53
2022-08-25T03:32:18.509Z,20.56
2022-08-25T03:35:20.539Z,20.60
2022-08-25T03:38:26.643Z,20.70
2022-08-25T03:41:32.679Z,20.76
2022-08-25T03:44:34.697Z,20.81
2022-08-25T03:47:36.586Z,20.88
2022-08-25T03:50:44.830Z,20.92
2022-08-25T03:53:54.033Z,20.94
2022-08-25T03:56:55.873Z,20.98
2022-08-25T03:59:57.868Z,21.10
2022-08-25T04:02:59.850Z,21.18
2022-08-25T04:06:03.736Z,21.29
2022-08-25T04:09:06.631Z,21.44
2022-08-25T04:12:08.862Z,21.60
2022-08-25T04:15:11.327Z,21.78
2022-08-25T04:18:13.522Z,21.94
2022-08-25T04:21:16.163Z,22.19
2022-08-25T04:24:18.481Z,22.40
2022-08-25T04:27:20.484Z,22.65
2022-08-25T04:30:22.565Z,22.81
2022-08-25T04:33:24.537Z,22.92
2022-08-25T04:36:26.510Z,23.13
2022-08-25T04:39:28.778Z,23.33
2022-08-25T04:42:30.794Z,23.41
2022-08-25T04:45:37.301Z,23.63
2022-08-25T04:48:40.315Z,23.84
2022-08-25T04:51:42.871Z,24.11
2022-08-25T04:54:46.460Z,24.34
2022-08-25T04:57:48.699Z,24.49
2022-08-25T05:00:50.662Z,24.62
2022-08-25T05:03:56.710Z,24.89
2022-08-25T05:06:59.258Z,25.10
2022-08-25T05:10:01.160Z,25.32
2022-08-25T05:13:04.017Z,25.46
2022-08-25T05:16:06.625Z,25.64
2022-08-25T05:19:11.720Z,25.88
2022-08-25T05:22:13.641Z,26.16
2022-08-25T05:25:15.944Z,26.44
2022-08-25T05:28:18.632Z,26.57
2022-08-25T05:31:22.509Z,26.75
2022-08-25T05:34:25.462Z,26.93
2022-08-25T05:37:27.544Z,27.04
2022-08-25T05:40:29.745Z,27.29
2022-08-25T05:43:31.994Z,27.48
2022-08-25T05:46:34.030Z,27.60
2022-08-25T05:49:35.994Z,27.76
2022-08-25T05:52:39.079Z,27.96
2022-08-25T05:55:44.979Z,28.08
2022-08-25T05:58:47.271Z,28.12
2022-08-25T06:02:08.076Z,28.32
2022-08-25T06:05:16.668Z,28.65
2022-08-25T06:08:20.043Z,28.74
2022-08-25T06:11:22.039Z,28.85
2022-08-25T06:14:24.514Z,28.94
2022-08-25T06:17:27.447Z,29.08
2022-08-25T06:20:31.306Z,29.20
2022-08-25T06:23:33.196Z,29.30
2022-08-25T06:26:35.267Z,29.45
2022-08-25T06:29:38.291Z,29.64
2022-08-25T06:32:41.437Z,29.62
2022-08-25T06:35:47.491Z,29.74
2022-08-25T06:38:49.579Z,30.00
2022-08-25T06:41:56.807Z,30.20
2022-08-25T06:45:01.686Z,30.37
2022-08-25T06:48:03.706Z,30.36
2022-08-25T06:51:13.885Z,30.53
2022-08-25T06:54:16.368Z,30.62
2022-08-25T06:57:19.445Z,30.71
2022-08-25T07:00:21.506Z,30.82
2022-08-25T07:03:26.361Z,30.92
2022-08-25T07:06:30.984Z,30.97
2022-08-25T07:09:38.589Z,31.21
2022-08-25T07:12:41.429Z,31.39
2022-08-25T07:15:44.390Z,31.52
2022-08-25T07:18:48.685Z,31.58
2022-08-25T07:21:53.030Z,31.61
2022-08-25T07:24:54.968Z,31.60
2022-08-25T07:27:59.021Z,31.78
2022-08-25T07:31:01.849Z,31.99
2022-08-25T07:34:22.851Z,32.27
2022-08-25T07:37:47.935Z,32.20
2022-08-25T07:40:54.618Z,32.25
2022-08-25T07:43:58.947Z,32.35
2022-08-25T07:47:01.177Z,32.22
2022-08-25T07:53:25.968Z,32.57
2022-08-25T07:56:28.312Z,32.83
2022-08-25T07:59:39.460Z,33.14
2022-08-25T08:02:42.937Z,33.11
2022-08-25T08:05:45.518Z,33.39
2022-08-25T08:08:49.867Z,33.38
2022-08-25T08:11:53.977Z,33.47
2022-08-25T08:15:10.468Z,33.52
2022-08-25T08:18:16.114Z,33.81
2022-08-25T08:21:23.399Z,34.09
2022-08-25T08:24:44.452Z,34.26
2022-08-25T08:27:47.273Z,34.30
2022-08-25T08:30:53.686Z,34.43
2022-08-25T08:33:58.724Z,34.60
2022-08-25T08:37:01.699Z,34.57
2022-08-25T08:40:05.544Z,34.67
2022-08-25T08:43:18.072Z,34.68
2022-08-25T08:46:22.894Z,34.71
2022-08-25T08:49:46.741Z,34.60
2022-08-25T08:53:19.857Z,34.70
2022-08-25T08:56:30.956Z,34.86
2022-08-25T08:59:44.656Z,34.97
2022-08-25T09:02:59.685Z,34.99
2022-08-25T09:06:09.003Z,35.01
2022-08-25T09:09:21.128Z,35.01
2022-08-25T09:12:37.602Z,35.08
2022-08-25T09:16:20.333Z,35.10
2022-08-25T09:19:46.417Z,35.09
2022-08-25T09:23:13.122Z,34.84
2022-08-25T09:26:37.480Z,34.94
2022-08-25T09:30:10.544Z,34.64
2022-08-25T09:33:21.149Z,34.53
2022-08-25T09:36:24.764Z,34.49
2022-08-25T09:39:28.181Z,34.69
2022-08-25T09:42:49.721Z,34.75
2022-08-25T09:46:05.374Z,34.68
2022-08-25T09:49:16.998Z,34.92
2022-08-25T09:52:21.703Z,34.59
2022-08-25T09:55:32.418Z,34.75
2022-08-25T09:58:34.876Z,34.87
2022-08-25T10:01:49.051Z,34.83
2022-08-25T10:04:52.663Z,34.84
2022-08-25T10:08:00.667Z,34.96
2022-08-25T10:11:09.023Z,34.90
2022-08-25T10:14:29.686Z,35.03
2022-08-25T10:17:33.423Z,35.30
2022-08-25T10:20:35.762Z,35.34
2022-08-25T10:23:56.186Z,35.30
2022-08-25T10:27:13.050Z,35.37
2022-08-25T10:30:34.454Z,35.56
2022-08-25T10:34:03.617Z,35.48
2022-08-25T10:37:09.238Z,35.46
2022-08-25T10:40:37.371Z,35.47
2022-08-25T10:44:04.479Z,35.41
2022-08-25T10:47:42.882Z,35.35
2022-08-25T10:50:49.010Z,35.44
2022-08-25T10:54:04.837Z,35.37
2022-08-25T10:57:39.929Z,34.52
2022-08-25T11:00:54.629Z,34.14
2022-08-25T11:04:21.633Z,34.13
2022-08-25T11:07:49.782Z,33.76
2022-08-25T11:11:04.105Z,33.68
2022-08-25T11:14:32.641Z,33.66
2022-08-25T11:18:06.114Z,33.96
2022-08-25T11:21:23.636Z,34.22
2022-08-25T11:28:27.066Z,34.50
2022-08-25T11:31:30.125Z,34.56
2022-08-25T11:34:35.359Z,34.60
2022-08-25T11:37:46.230Z,34.85
2022-08-25T11:41:11.365Z,34.75
2022-08-25T11:44:53.270Z,34.66
2022-08-25T11:48:25.022Z,34.50
2022-08-25T11:51:36.493Z,34.69
2022-08-25T11:54:48.658Z,34.80
2022-08-25T11:57:53.886Z,34.65
2022-08-25T12:00:58.732Z,34.48
2022-08-25T12:04:43.998Z,34.51
2022-08-25T12:08:08.491Z,34.58
2022-08-25T12:11:12.054Z,34.68
2022-08-25T12:14:38.493Z,34.85
2022-08-25T12:17:40.713Z,34.59
2022-08-25T12:20:57.955Z,34.52
2022-08-25T12:24:03.062Z,34.68
2022-08-25T12:28:02.394Z,34.65
2022-08-25T12:32:04.843Z,34.43
2022-08-25T12:35:31.113Z,34.51
2022-08-25T12:38:44.127Z,34.39
2022-08-25T12:41:59.844Z,34.43
2022-08-25T12:45:09.380Z,34.48
2022-08-25T12:48:31.762Z,34.26
2022-08-25T12:51:33.667Z,34.33
2022-08-25T12:54:43.890Z,34.15
2022-08-25T12:58:01.108Z,34.26
2022-08-25T13:01:35.861Z,34.03
2022-08-25T13:04:45.761Z,33.95
2022-08-25T13:08:44.794Z,33.59
2022-08-25T13:12:11.553Z,33.45
2022-08-25T13:15:25.164Z,33.32
2022-08-25T13:18:30.991Z,33.08
2022-08-25T13:21:43.067Z,32.75
2022-08-25T13:24:50.484Z,32.55
2022-08-25T13:27:58.837Z,32.37
2022-08-25T13:31:28.297Z,32.30
2022-08-25T13:34:37.158Z,32.25
2022-08-25T13:37:39.186Z,32.17
2022-08-25T13:40:41.981Z,32.10
2022-08-25T13:43:45.435Z,32.05
2022-08-25T13:46:48.640Z,32.07
2022-08-25T13:49:53.024Z,32.05
2022-08-25T13:53:14.160Z,32.02
2022-08-25T13:56:40.075Z,31.95
2022-08-25T13:59:44.172Z,31.92
2022-08-25T14:02:53.698Z,31.85
2022-08-25T14:06:15.894Z,31.83
2022-08-25T14:09:28.313Z,31.80
2022-08-25T14:12:44.818Z,31.80
2022-08-25T14:15:47.272Z,31.76
2022-08-25T14:18:55.011Z,31.72
2022-08-25T14:22:02.224Z,31.68
2022-08-25T14:25:07.020Z,31.78
2022-08-25T14:28:19.783Z,31.77
2022-08-25T14:31:28.030Z,31.83
2022-08-25T14:34:39.485Z,31.92
2022-08-25T14:37:44.796Z,32.02
2022-08-25T14:40:48.216Z,32.15
2022-08-25T14:43:50.570Z,32.18
2022-08-25T14:46:55.536Z,32.27
2022-08-25T14:49:58.386Z,32.33
2022-08-25T14:53:01.171Z,32.44
2022-08-25T14:56:06.900Z,32.44
2022-08-25T14:59:12.243Z,32.41
2022-08-25T15:02:19.933Z,32.39
2022-08-25T15:05:28.373Z,32.39
2022-08-25T15:08:49.247Z,32.36
2022-08-25T15:11:54.600Z,32.35
2022-08-25T15:14:57.631Z,32.29
2022-08-25T15:18:01.222Z,32.31
2022-08-25T15:21:03.666Z,32.23
2022-08-25T15:24:08.923Z,32.13
2022-08-25T15:27:13.595Z,32.12
2022-08-25T15:30:15.814Z,32.06
2022-08-25T15:33:19.397Z,31.95
2022-08-25T15:36:25.675Z,31.98
2022-08-25T15:39:28.175Z,31.97
2022-08-25T15:42:30.256Z,31.86
2022-08-25T15:45:32.965Z,31.79
2022-08-25T15:48:36.029Z,31.74
2022-08-25T15:51:38.386Z,31.69
2022-08-25T15:54:40.310Z,31.59
2022-08-25T15:57:43.997Z,31.54
2022-08-25T16:00:51.208Z,31.38
2022-08-25T16:03:58.536Z,31.29
2022-08-25T16:07:00.933Z,31.23
2022-08-25T16:10:04.519Z,31.10
2022-08-25T16:13:08.012Z,31.01
2022-08-25T16:16:10.891Z,30.95
2022-08-25T16:19:15.062Z,30.83
2022-08-25T16:22:17.468Z,30.74
2022-08-25T16:25:19.615Z,30.66
2022-08-25T16:28:24.434Z,30.58
2022-08-25T16:31:27.046Z,30.47
2022-08-25T16:34:30.886Z,30.41
2022-08-25T16:37:36.344Z,30.34
2022-08-25T16:40:40.998Z,30.21
2022-08-25T16:43:44.533Z,30.12
2022-08-25T16:46:48.993Z,30.07
2022-08-25T16:49:52.936Z,30.04
2022-08-25T16:53:13.427Z,29.95
2022-08-25T16:56:15.429Z,29.79
2022-08-25T16:59:20.787Z,29.76
2022-08-25T17:02:22.904Z,29.68
2022-08-25T17:05:27.355Z,29.59
2022-08-25T17:08:30.383Z,29.49
2022-08-25T17:11:36.042Z,29.46
2022-08-25T17:14:38.173Z,29.39
2022-08-25T17:17:40.118Z,29.24
2022-08-25T17:20:45.649Z,29.12
2022-08-25T17:23:49.327Z,29.02
2022-08-25T17:26:53.375Z,28.97
2022-08-25T17:29:55.444Z,28.83
2022-08-25T17:32:59.842Z,28.69
2022-08-25T17:36:02.114Z,28.66
2022-08-25T17:39:05.438Z,28.54
2022-08-25T17:42:07.497Z,28.44
2022-08-25T17:45:10.692Z,28.32
2022-08-25T17:48:15.729Z,28.26
2022-08-25T17:51:20.743Z,28.20
2022-08-25T17:54:23.988Z,28.14
2022-08-25T17:57:27.060Z,28.04
2022-08-25T18:00:33.005Z,27.92
2022-08-25T18:03:36.667Z,27.86
2022-08-25T18:06:40.537Z,27.76
2022-08-25T18:09:42.486Z,27.67
2022-08-25T18:12:45.605Z,27.48
2022-08-25T18:15:47.579Z,27.52
2022-08-25T18:18:54.451Z,27.50
2022-08-25T18:21:58.587Z,27.41
2022-08-25T18:25:05.589Z,27.43
2022-08-25T18:28:14.094Z,27.37
2022-08-25T18:31:24.935Z,27.26
2022-08-25T18:34:31.623Z,27.20
2022-08-25T18:37:54.345Z,27.09
2022-08-25T18:41:05.460Z,27.05
2022-08-25T18:44:11.215Z,26.96
2022-08-25T18:47:15.464Z,26.89
2022-08-25T18:50:28.886Z,26.92
2022-08-25T18:53:37.162Z,26.85
2022-08-25T18:56:43.794Z,26.75
2022-08-25T18:59:47.856Z,26.72
2022-08-25T19:02:55.267Z,26.61
2022-08-25T19:06:05.949Z,26.57
2022-08-25T19:09:08.471Z,26.49
2022-08-25T19:12:11.779Z,26.42
2022-08-25T19:15:32.457Z,26.41
2022-08-25T19:18:34.925Z,26.33
2022-08-25T19:21:42.696Z,26.23
2022-08-25T19:24:45.721Z,26.18
2022-08-25T19:27:49.745Z,26.11
2022-08-25T19:30:51.677Z,26.14
2022-08-25T19:33:56.697Z,26.07
2022-08-25T19:37:04.643Z,25.99
2022-08-25T19:40:12.791Z,25.99
2022-08-25T19:43:16.377Z,25.91
2022-08-25T19:46:20.534Z,25.89
2022-08-25T19:49:27.151Z,25.92
2022-08-25T19:52:34.996Z,25.84
2022-08-25T19:55:37.731Z,25.81
2022-08-25T19:58:39.571Z,25.73
2022-08-25T20:01:44.259Z,25.74
2022-08-25T20:04:50.405Z,25.72
2022-08-25T20:07:54.797Z,25.69
2022-08-25T20:10:58.369Z,25.70
2022-08-25T20:14:03.912Z,25.66
2022-08-25T20:17:14.846Z,25.63
2022-08-25T20:20:32.262Z,25.64
2022-08-25T20:23:56.499Z,25.58
2022-08-25T20:27:00.438Z,25.58
2022-08-25T20:30:16.778Z,25.58
2022-08-25T20:33:22.993Z,25.51
2022-08-25T20:36:25.550Z,25.48
2022-08-25T20:39:27.562Z,25.44
2022-08-25T20:42:29.639Z,25.43
2022-08-25T20:45:31.860Z,25.33
2022-08-25T20:48:34.396Z,25.34
2022-08-25T20:51:36.476Z,25.34
2022-08-25T20:54:40.471Z,25.23
2022-08-25T20:57:42.811Z,25.12
2022-08-25T21:00:46.067Z,25.06
2022-08-25T21:03:49.481Z,25.03
2022-08-25T21:06:51.572Z,24.95
2022-08-25T21:09:53.511Z,24.90
2022-08-25T21:12:55.454Z,24.98
2022-08-25T21:15:57.536Z,24.94
2022-08-25T21:18:59.443Z,24.85
2022-08-25T21:22:01.840Z,24.86
2022-08-25T21:25:04.803Z,24.84
2022-08-25T21:28:06.772Z,24.82
2022-08-25T21:31:10.271Z,24.83
2022-08-25T21:34:12.959Z,24.81
2022-08-25T21:37:14.902Z,24.78
2022-08-25T21:40:16.947Z,24.77
2022-08-25T21:43:18.883Z,24.71
2022-08-25T21:46:24.162Z,24.76
2022-08-25T21:49:27.599Z,24.83
2022-08-25T21:52:30.147Z,24.87
2022-08-25T21:55:37.152Z,24.86
2022-08-25T21:58:49.185Z,24.90
2022-08-25T22:01:55.254Z,24.85
2022-08-25T22:04:58.115Z,24.81
2022-08-25T22:08:01.119Z,24.79
2022-08-25T22:11:07.934Z,24.82
2022-08-25T22:14:11.101Z,24.81
2022-08-25T22:17:48.229Z,24.74
2022-08-25T22:20:51.274Z,24.82
2022-08-25T22:23:55.933Z,24.85
2022-08-25T22:26:58.373Z,24.84
2022-08-25T22:30:00.733Z,24.80
2022-08-25T22:33:03.116Z,24.79
2022-08-25T22:36:21.989Z,24.85
2022-08-25T22:39:23.987Z,24.82
2022-08-25T22:42:27.238Z,24.77
2022-08-25T22:45:29.671Z,24.75
2022-08-25T22:48:32.119Z,24.70
2022-08-25T22:51:36.370Z,24.66
2022-08-25T22:54:38.711Z,24.60
2022-08-25T22:57:41.732Z,24.36
2022-08-25T23:00:43.733Z,24.16
2022-08-25T23:03:45.867Z,24.00
2022-08-25T23:06:49.737Z,23.89
2022-08-25T23:09:51.677Z,23.80
2022-08-25T23:12:53.616Z,23.72
2022-08-25T23:15:55.513Z,23.63
2022-08-25T23:18:57.536Z,23.55
2022-08-25T23:22:09.512Z,23.48
2022-08-25T23:25:12.508Z,23.36
2022-08-25T23:28:15.618Z,23.38
2022-08-25T23:31:18.467Z,23.35
2022-08-25T23:34:20.726Z,23.34
2022-08-25T23:37:23.241Z,23.34
2022-08-25T23:40:25.279Z,23.33
2022-08-25T23:43:28.930Z,23.35
2022-08-25T23:46:32.203Z,23.35
2022-08-25T23:49:34.203Z,23.36
2022-08-25T23:52:36.566Z,23.37
2022-08-25T23:55:39.208Z,23.36
2022-08-25T23:58:53.309Z,23.34
